FAD807 OERK-LTFM
Flight info
| Callsign | FAD807 |
|---|---|
| Flight time | 4h 23m |
| Altitude | 34000 |
| Route | IVONU Z710 GAS G662 NIMAR L550 NOVPA N697 SIMSA/N0461F360 N697 MENLI L677 CVO A16 RASDA M855 TOMBI UM855 SISPI |
| Aircraft | A320/M-SDE3FGHIRWY/LB1 |
Departure
| Time | 2026-05-04 15:49 |
|---|---|
| Airport | King Khalid International Airport (OERK) |
Arrival
| Time | 2026-05-04 20:12 |
|---|---|
| Airport | İstanbul Airport (LTFM) |
| Time | Latitude | Longitude | Altitude | Speed | Heading |
|---|---|---|---|---|---|
| 2026-05-04 15:24 | 24.96202 | 46.70228 | 2046 ft | 0 kts | 182° |
| 2026-05-04 15:37 | 24.96207 | 46.70228 | 2046 ft | 4 kts | 181° |
| 2026-05-04 15:37 | 24.96236 | 46.70228 | 2043 ft | 4 kts | 173° |
| 2026-05-04 15:37 | 24.96261 | 46.70220 | 2043 ft | 4 kts | 140° |
| 2026-05-04 15:38 | 24.96269 | 46.70208 | 2044 ft | 1 kts | 60° |
| 2026-05-04 15:38 | 24.96269 | 46.70207 | 2044 ft | 0 kts | 60° |
| 2026-05-04 15:42 | 24.96272 | 46.70214 | 2042 ft | 3 kts | 60° |
| 2026-05-04 15:42 | 24.96278 | 46.70225 | 2043 ft | 1 kts | 60° |
| 2026-05-04 15:42 | 24.96280 | 46.70229 | 2043 ft | 2 kts | 60° |
| 2026-05-04 15:42 | 24.96292 | 46.70253 | 2040 ft | 6 kts | 60° |
| 2026-05-04 15:43 | 24.96318 | 46.70303 | 2040 ft | 9 kts | 59° |
| 2026-05-04 15:43 | 24.96357 | 46.70376 | 2044 ft | 13 kts | 59° |
| 2026-05-04 15:43 | 24.96408 | 46.70475 | 2042 ft | 17 kts | 62° |
| 2026-05-04 15:43 | 24.96463 | 46.70581 | 2039 ft | 13 kts | 57° |
| 2026-05-04 15:44 | 24.96547 | 46.70582 | 2039 ft | 14 kts | 330° |
| 2026-05-04 15:44 | 24.96637 | 46.70526 | 2042 ft | 15 kts | 330° |
| 2026-05-04 15:44 | 24.96733 | 46.70465 | 2039 ft | 16 kts | 330° |
| 2026-05-04 15:44 | 24.96837 | 46.70399 | 2039 ft | 18 kts | 330° |
| 2026-05-04 15:45 | 24.96946 | 46.70330 | 2041 ft | 19 kts | 330° |
| 2026-05-04 15:45 | 24.97063 | 46.70255 | 2042 ft | 20 kts | 330° |
| 2026-05-04 15:45 | 24.97189 | 46.70176 | 2041 ft | 21 kts | 330° |
| 2026-05-04 15:45 | 24.97322 | 46.70092 | 2041 ft | 23 kts | 330° |
| 2026-05-04 15:46 | 24.97461 | 46.70003 | 2041 ft | 24 kts | 327° |
| 2026-05-04 15:46 | 24.97567 | 46.70010 | 2045 ft | 17 kts | 62° |
| 2026-05-04 15:46 | 24.97632 | 46.70136 | 2033 ft | 22 kts | 60° |
| 2026-05-04 15:46 | 24.97648 | 46.70227 | 2037 ft | 7 kts | 153° |
| 2026-05-04 15:47 | 24.97636 | 46.70235 | 2039 ft | 0 kts | 149° |
| 2026-05-04 15:47 | 24.97607 | 46.70254 | 2036 ft | 24 kts | 150° |
| 2026-05-04 15:48 | 24.97245 | 46.70483 | 2036 ft | 93 kts | 150° |
| 2026-05-04 15:48 | 24.96530 | 46.70933 | 2033 ft | 145 kts | 150° |
| 2026-05-04 15:48 | 24.94396 | 46.72290 | 2506 ft | 195 kts | 150° |
| 2026-05-04 15:49 | 24.93271 | 46.73139 | 3200 ft | 197 kts | 134° |
| 2026-05-04 15:49 | 24.92499 | 46.74386 | 3828 ft | 201 kts | 114° |
| 2026-05-04 15:49 | 24.92063 | 46.75881 | 4031 ft | 214 kts | 106° |
| 2026-05-04 15:49 | 24.91644 | 46.77520 | 4141 ft | 230 kts | 106° |
| 2026-05-04 15:50 | 24.91190 | 46.79278 | 4264 ft | 248 kts | 107° |
| 2026-05-04 15:50 | 24.90421 | 46.81024 | 4449 ft | 265 kts | 134° |
| 2026-05-04 15:50 | 24.88813 | 46.82067 | 4737 ft | 276 kts | 170° |
| 2026-05-04 15:50 | 24.86898 | 46.81997 | 5239 ft | 279 kts | 191° |
| 2026-05-04 15:51 | 24.84987 | 46.81733 | 5802 ft | 283 kts | 178° |
| 2026-05-04 15:51 | 24.83051 | 46.82283 | 6392 ft | 287 kts | 160° |
| 2026-05-04 15:51 | 24.81167 | 46.82952 | 6976 ft | 289 kts | 166° |
| 2026-05-04 15:51 | 24.79184 | 46.83481 | 7584 ft | 291 kts | 168° |
| 2026-05-04 15:52 | 24.77204 | 46.83955 | 8224 ft | 291 kts | 169° |
| 2026-05-04 15:52 | 24.75214 | 46.84437 | 8853 ft | 294 kts | 168° |
| 2026-05-04 15:52 | 24.73215 | 46.84942 | 9473 ft | 296 kts | 168° |
| 2026-05-04 15:52 | 24.71233 | 46.85465 | 10058 ft | 298 kts | 168° |
| 2026-05-04 15:53 | 24.69211 | 46.86014 | 10637 ft | 301 kts | 167° |
| 2026-05-04 15:53 | 24.67173 | 46.86550 | 11213 ft | 302 kts | 173° |
| 2026-05-04 15:53 | 24.65080 | 46.86512 | 11771 ft | 301 kts | 194° |
| 2026-05-04 15:53 | 24.63147 | 46.85648 | 12274 ft | 305 kts | 214° |
| 2026-05-04 15:54 | 24.61573 | 46.84005 | 12385 ft | 322 kts | 237° |
| 2026-05-04 15:54 | 24.60440 | 46.81806 | 12524 ft | 340 kts | 242° |
| 2026-05-04 15:54 | 24.59308 | 46.79497 | 12683 ft | 355 kts | 242° |
| 2026-05-04 15:54 | 24.58120 | 46.77085 | 13102 ft | 361 kts | 242° |
| 2026-05-04 15:55 | 24.56911 | 46.74647 | 13654 ft | 364 kts | 242° |
| 2026-05-04 15:55 | 24.55689 | 46.72199 | 14164 ft | 366 kts | 242° |
| 2026-05-04 15:55 | 24.54584 | 46.69680 | 14687 ft | 368 kts | 251° |
| 2026-05-04 15:55 | 24.54011 | 46.66942 | 15196 ft | 370 kts | 264° |
| 2026-05-04 15:56 | 24.54054 | 46.64107 | 15715 ft | 373 kts | 277° |
| 2026-05-04 15:56 | 24.54725 | 46.61352 | 16237 ft | 377 kts | 291° |
| 2026-05-04 15:56 | 24.55964 | 46.58802 | 16747 ft | 380 kts | 299° |
| 2026-05-04 15:56 | 24.57324 | 46.56348 | 17263 ft | 382 kts | 299° |
| 2026-05-04 15:57 | 24.58697 | 46.53862 | 17881 ft | 381 kts | 299° |
| 2026-05-04 15:57 | 24.60065 | 46.51374 | 18399 ft | 381 kts | 298° |
| 2026-05-04 15:57 | 24.61436 | 46.48871 | 18839 ft | 383 kts | 298° |
| 2026-05-04 15:57 | 24.62813 | 46.46354 | 19257 ft | 385 kts | 298° |
| 2026-05-04 15:58 | 24.64192 | 46.43827 | 19683 ft | 387 kts | 298° |
| 2026-05-04 15:58 | 24.65582 | 46.41283 | 20104 ft | 389 kts | 298° |
| 2026-05-04 15:58 | 24.66978 | 46.38731 | 20521 ft | 390 kts | 298° |
| 2026-05-04 15:58 | 24.68382 | 46.36165 | 20929 ft | 392 kts | 298° |
| 2026-05-04 15:59 | 24.69790 | 46.33588 | 21319 ft | 394 kts | 298° |
| 2026-05-04 15:59 | 24.71207 | 46.30996 | 21716 ft | 396 kts | 298° |
| 2026-05-04 15:59 | 24.72632 | 46.28389 | 22091 ft | 398 kts | 298° |
| 2026-05-04 15:59 | 24.74059 | 46.25774 | 22484 ft | 400 kts | 298° |
| 2026-05-04 16:00 | 24.75475 | 46.23176 | 22875 ft | 401 kts | 298° |
| 2026-05-04 16:00 | 24.76911 | 46.20537 | 23254 ft | 403 kts | 298° |
| 2026-05-04 16:00 | 24.78356 | 46.17880 | 23577 ft | 405 kts | 298° |
| 2026-05-04 16:00 | 24.79805 | 46.15218 | 23895 ft | 406 kts | 297° |
| 2026-05-04 16:01 | 24.81260 | 46.12544 | 24200 ft | 407 kts | 297° |
| 2026-05-04 16:01 | 24.82717 | 46.09865 | 24487 ft | 409 kts | 297° |
| 2026-05-04 16:01 | 24.84180 | 46.07169 | 24773 ft | 411 kts | 297° |
| 2026-05-04 16:01 | 24.85645 | 46.04469 | 25030 ft | 412 kts | 297° |
| 2026-05-04 16:02 | 24.87119 | 46.01751 | 25303 ft | 414 kts | 297° |
| 2026-05-04 16:02 | 24.88601 | 45.99024 | 25576 ft | 416 kts | 297° |
| 2026-05-04 16:02 | 24.91571 | 45.93534 | 26137 ft | 418 kts | 296° |
| 2026-05-04 16:03 | 24.93062 | 45.90777 | 26414 ft | 420 kts | 296° |
| 2026-05-04 16:03 | 24.94544 | 45.88040 | 26678 ft | 422 kts | 296° |
| 2026-05-04 16:03 | 24.96049 | 45.85262 | 26931 ft | 423 kts | 296° |
| 2026-05-04 16:03 | 24.97558 | 45.82478 | 27180 ft | 424 kts | 296° |
| 2026-05-04 16:04 | 24.99074 | 45.79678 | 27431 ft | 426 kts | 296° |
| 2026-05-04 16:04 | 25.02116 | 45.74050 | 27918 ft | 428 kts | 296° |
| 2026-05-04 16:04 | 25.03640 | 45.71228 | 28165 ft | 429 kts | 296° |
| 2026-05-04 16:05 | 25.05164 | 45.68397 | 28383 ft | 430 kts | 295° |
| 2026-05-04 16:05 | 25.06628 | 45.65519 | 28635 ft | 429 kts | 293° |
| 2026-05-04 16:05 | 25.09253 | 45.59610 | 29079 ft | 430 kts | 290° |
| 2026-05-04 16:06 | 25.10483 | 45.56653 | 29310 ft | 430 kts | 290° |
| 2026-05-04 16:06 | 25.13825 | 45.48709 | 30145 ft | 427 kts | 290° |
| 2026-05-04 16:07 | 25.15537 | 45.44762 | 30490 ft | 426 kts | 290° |
| 2026-05-04 16:07 | 25.19394 | 45.35944 | 31256 ft | 424 kts | 290° |
| 2026-05-04 16:08 | 25.20655 | 45.33055 | 31505 ft | 423 kts | 290° |
| 2026-05-04 16:08 | 25.24464 | 45.24297 | 32300 ft | 420 kts | 290° |
| 2026-05-04 16:09 | 25.26978 | 45.18481 | 32800 ft | 419 kts | 290° |
| 2026-05-04 16:09 | 25.29482 | 45.12682 | 33284 ft | 418 kts | 289° |
| 2026-05-04 16:10 | 25.32000 | 45.06867 | 33829 ft | 415 kts | 289° |
| 2026-05-04 16:11 | 25.36937 | 44.95403 | 33893 ft | 413 kts | 289° |
| 2026-05-04 16:12 | 25.44344 | 44.78171 | 33899 ft | 414 kts | 289° |
| 2026-05-04 16:13 | 25.49259 | 44.66695 | 33899 ft | 414 kts | 289° |
| 2026-05-04 16:14 | 25.55009 | 44.55617 | 33910 ft | 430 kts | 308° |
| 2026-05-04 16:16 | 25.66020 | 44.44268 | 33890 ft | 433 kts | 309° |
| 2026-05-04 16:17 | 25.76990 | 44.32935 | 33907 ft | 431 kts | 308° |
| 2026-05-04 16:18 | 25.85771 | 44.23858 | 33901 ft | 431 kts | 308° |
| 2026-05-04 16:19 | 25.96668 | 44.12542 | 33907 ft | 429 kts | 308° |
| 2026-05-04 16:20 | 26.07554 | 44.01218 | 33923 ft | 428 kts | 308° |
| 2026-05-04 16:22 | 26.18322 | 43.89986 | 33884 ft | 427 kts | 308° |
| 2026-05-04 16:23 | 26.30856 | 43.76084 | 33878 ft | 411 kts | 294° |
| 2026-05-04 16:25 | 26.39771 | 43.59821 | 33888 ft | 410 kts | 293° |
| 2026-05-04 16:26 | 26.50167 | 43.40808 | 33909 ft | 411 kts | 292° |
| 2026-05-04 16:28 | 26.57585 | 43.27186 | 33921 ft | 410 kts | 292° |
| 2026-05-04 16:29 | 26.67905 | 43.08178 | 33932 ft | 409 kts | 292° |
| 2026-05-04 16:31 | 26.75249 | 42.94597 | 33954 ft | 407 kts | 292° |
| 2026-05-04 16:32 | 26.83955 | 42.78449 | 33946 ft | 404 kts | 292° |
| 2026-05-04 16:33 | 26.89738 | 42.67688 | 33948 ft | 403 kts | 292° |
| 2026-05-04 16:34 | 26.94050 | 42.59663 | 33973 ft | 402 kts | 292° |
| 2026-05-04 16:35 | 27.02639 | 42.43608 | 33962 ft | 399 kts | 292° |
| 2026-05-04 16:36 | 27.06906 | 42.35606 | 33973 ft | 399 kts | 292° |
| 2026-05-04 16:37 | 27.11156 | 42.27630 | 33965 ft | 399 kts | 292° |
| 2026-05-04 16:38 | 27.16843 | 42.16948 | 33965 ft | 398 kts | 291° |
| 2026-05-04 16:39 | 27.23901 | 42.03603 | 33954 ft | 399 kts | 292° |
| 2026-05-04 16:40 | 27.29576 | 41.92877 | 33992 ft | 400 kts | 292° |
| 2026-05-04 16:41 | 27.36663 | 41.79420 | 33976 ft | 400 kts | 292° |
| 2026-05-04 16:43 | 27.44368 | 41.66364 | 33952 ft | 419 kts | 307° |
| 2026-05-04 16:43 | 27.50843 | 41.59690 | 33954 ft | 421 kts | 307° |
| 2026-05-04 16:45 | 27.63748 | 41.46337 | 33958 ft | 420 kts | 307° |
| 2026-05-04 16:46 | 27.74505 | 41.35174 | 33965 ft | 421 kts | 307° |
| 2026-05-04 16:47 | 27.82405 | 41.26951 | 33954 ft | 422 kts | 307° |
| 2026-05-04 16:48 | 27.91034 | 41.17939 | 33950 ft | 423 kts | 307° |
| 2026-05-04 16:49 | 27.99647 | 41.08946 | 33962 ft | 423 kts | 307° |
| 2026-05-04 16:50 | 28.08268 | 40.99910 | 33976 ft | 422 kts | 307° |
| 2026-05-04 16:51 | 28.14735 | 40.93126 | 33959 ft | 423 kts | 307° |
| 2026-05-04 16:52 | 28.23336 | 40.84082 | 33945 ft | 423 kts | 307° |
| 2026-05-04 16:53 | 28.29813 | 40.77253 | 33940 ft | 424 kts | 307° |
| 2026-05-04 16:54 | 28.38456 | 40.68125 | 33936 ft | 424 kts | 307° |
| 2026-05-04 16:55 | 28.51385 | 40.54428 | 33942 ft | 425 kts | 307° |
| 2026-05-04 16:56 | 28.62195 | 40.42958 | 33950 ft | 426 kts | 307° |
| 2026-05-04 16:57 | 28.68660 | 40.36081 | 33927 ft | 426 kts | 307° |
| 2026-05-04 16:58 | 28.77311 | 40.26846 | 33930 ft | 426 kts | 307° |
| 2026-05-04 17:00 | 28.90253 | 40.12993 | 33951 ft | 426 kts | 308° |
| 2026-05-04 17:01 | 29.01034 | 40.01401 | 33973 ft | 426 kts | 308° |
| 2026-05-04 17:02 | 29.08984 | 39.91719 | 33980 ft | 406 kts | 291° |
| 2026-05-04 17:02 | 29.10804 | 39.85774 | 33963 ft | 391 kts | 274° |
| 2026-05-04 17:03 | 29.11019 | 39.82708 | 33964 ft | 386 kts | 266° |
| 2026-05-04 17:03 | 29.11037 | 39.73496 | 33974 ft | 386 kts | 267° |
| 2026-05-04 17:04 | 29.11084 | 39.61225 | 33975 ft | 387 kts | 267° |
| 2026-05-04 17:05 | 29.11102 | 39.48912 | 33984 ft | 387 kts | 267° |
| 2026-05-04 17:06 | 29.11111 | 39.39682 | 33995 ft | 387 kts | 267° |
| 2026-05-04 17:07 | 29.11124 | 39.31490 | 33984 ft | 387 kts | 266° |
| 2026-05-04 17:07 | 29.11126 | 39.24341 | 33989 ft | 387 kts | 266° |
| 2026-05-04 17:08 | 29.11120 | 39.15127 | 33988 ft | 386 kts | 266° |
| 2026-05-04 17:09 | 29.11115 | 39.08979 | 34020 ft | 386 kts | 266° |
| 2026-05-04 17:09 | 29.11102 | 39.02848 | 34008 ft | 385 kts | 266° |
| 2026-05-04 17:10 | 29.11067 | 38.87608 | 34041 ft | 384 kts | 266° |
| 2026-05-04 17:11 | 29.11042 | 38.81509 | 34018 ft | 383 kts | 266° |
| 2026-05-04 17:12 | 29.10998 | 38.72381 | 34005 ft | 382 kts | 266° |
| 2026-05-04 17:13 | 29.10915 | 38.57254 | 34011 ft | 381 kts | 265° |
| 2026-05-04 17:14 | 29.10831 | 38.45204 | 33989 ft | 380 kts | 265° |
| 2026-05-04 17:15 | 29.10768 | 38.36143 | 33981 ft | 380 kts | 265° |
| 2026-05-04 17:16 | 29.10669 | 38.24059 | 33977 ft | 380 kts | 265° |
| 2026-05-04 17:17 | 29.10553 | 38.12040 | 34000 ft | 379 kts | 265° |
| 2026-05-04 17:18 | 29.10433 | 38.00011 | 33946 ft | 378 kts | 265° |
| 2026-05-04 17:19 | 29.10304 | 37.87989 | 33947 ft | 381 kts | 266° |
| 2026-05-04 17:20 | 29.10161 | 37.75845 | 33962 ft | 383 kts | 266° |
| 2026-05-04 17:20 | 29.10045 | 37.66752 | 33970 ft | 383 kts | 265° |
| 2026-05-04 17:21 | 29.09878 | 37.54553 | 33972 ft | 384 kts | 265° |
| 2026-05-04 17:22 | 29.09795 | 37.48445 | 33976 ft | 384 kts | 266° |
| 2026-05-04 17:23 | 29.09725 | 37.36265 | 33989 ft | 385 kts | 266° |
| 2026-05-04 17:24 | 29.09657 | 37.27095 | 33966 ft | 385 kts | 266° |
| 2026-05-04 17:25 | 29.09542 | 37.14910 | 34001 ft | 384 kts | 266° |
| 2026-05-04 17:26 | 29.09425 | 37.02711 | 34009 ft | 384 kts | 266° |
| 2026-05-04 17:27 | 29.09262 | 36.87514 | 34027 ft | 382 kts | 266° |
| 2026-05-04 17:28 | 29.09118 | 36.75385 | 34015 ft | 381 kts | 265° |
| 2026-05-04 17:29 | 29.08876 | 36.57299 | 33990 ft | 380 kts | 266° |
| 2026-05-04 17:31 | 29.08623 | 36.42212 | 34016 ft | 379 kts | 265° |
| 2026-05-04 17:32 | 29.08184 | 36.27166 | 34001 ft | 379 kts | 265° |
| 2026-05-04 17:33 | 29.07846 | 36.15171 | 34008 ft | 379 kts | 265° |
| 2026-05-04 17:34 | 29.07500 | 36.03114 | 34009 ft | 380 kts | 265° |
| 2026-05-04 17:35 | 29.07038 | 35.88076 | 33991 ft | 380 kts | 265° |
| 2026-05-04 17:36 | 29.06851 | 35.82035 | 34006 ft | 380 kts | 265° |
| 2026-05-04 17:36 | 29.06662 | 35.76006 | 34010 ft | 380 kts | 265° |
| 2026-05-04 17:37 | 29.06471 | 35.69964 | 34025 ft | 381 kts | 265° |
| 2026-05-04 17:37 | 29.06277 | 35.63955 | 34030 ft | 381 kts | 265° |
| 2026-05-04 17:38 | 29.06077 | 35.57894 | 34026 ft | 382 kts | 265° |
| 2026-05-04 17:38 | 29.05876 | 35.51828 | 34039 ft | 382 kts | 265° |
| 2026-05-04 17:39 | 29.05569 | 35.42718 | 34056 ft | 383 kts | 265° |
| 2026-05-04 17:39 | 29.05363 | 35.36678 | 34054 ft | 383 kts | 265° |
| 2026-05-04 17:40 | 29.05153 | 35.30592 | 34057 ft | 383 kts | 265° |
| 2026-05-04 17:40 | 29.04943 | 35.24513 | 34076 ft | 383 kts | 265° |
| 2026-05-04 17:41 | 29.04721 | 35.18439 | 34050 ft | 382 kts | 265° |
| 2026-05-04 17:41 | 29.04502 | 35.12417 | 34054 ft | 381 kts | 265° |
| 2026-05-04 17:42 | 29.04285 | 35.06365 | 34043 ft | 381 kts | 265° |
| 2026-05-04 17:42 | 29.04064 | 35.00324 | 34040 ft | 380 kts | 265° |
| 2026-05-04 17:43 | 29.03838 | 34.94277 | 34033 ft | 381 kts | 265° |
| 2026-05-04 17:43 | 29.03603 | 34.88219 | 34014 ft | 382 kts | 265° |
| 2026-05-04 17:44 | 29.03388 | 34.82199 | 34004 ft | 382 kts | 266° |
| 2026-05-04 17:44 | 29.03303 | 34.76115 | 34003 ft | 383 kts | 266° |
| 2026-05-04 17:45 | 29.03251 | 34.70036 | 34011 ft | 383 kts | 267° |
| 2026-05-04 17:45 | 29.04139 | 34.64001 | 34010 ft | 392 kts | 283° |
| 2026-05-04 17:46 | 29.05887 | 34.58135 | 34017 ft | 392 kts | 283° |
| 2026-05-04 17:46 | 29.07615 | 34.52218 | 34021 ft | 393 kts | 283° |
| 2026-05-04 17:47 | 29.09341 | 34.46290 | 34062 ft | 393 kts | 283° |
| 2026-05-04 17:47 | 29.11066 | 34.40378 | 34075 ft | 391 kts | 283° |
| 2026-05-04 17:48 | 29.12787 | 34.34510 | 34068 ft | 389 kts | 283° |
| 2026-05-04 17:48 | 29.14490 | 34.28645 | 34074 ft | 388 kts | 283° |
| 2026-05-04 17:49 | 29.16185 | 34.22826 | 34063 ft | 388 kts | 283° |
| 2026-05-04 17:49 | 29.17891 | 34.16979 | 34076 ft | 387 kts | 283° |
| 2026-05-04 17:50 | 29.19590 | 34.11133 | 34077 ft | 387 kts | 283° |
| 2026-05-04 17:50 | 29.21278 | 34.05287 | 34076 ft | 387 kts | 283° |
| 2026-05-04 17:51 | 29.22956 | 33.99436 | 34077 ft | 387 kts | 283° |
| 2026-05-04 17:51 | 29.24641 | 33.93584 | 34090 ft | 387 kts | 283° |
| 2026-05-04 17:52 | 29.26322 | 33.87778 | 34087 ft | 386 kts | 283° |
| 2026-05-04 17:52 | 29.28012 | 33.81925 | 34322 ft | 387 kts | 283° |
| 2026-05-04 17:53 | 29.28849 | 33.78999 | 34581 ft | 386 kts | 283° |
| 2026-05-04 17:53 | 29.29686 | 33.76074 | 34855 ft | 386 kts | 282° |
| 2026-05-04 17:53 | 29.30518 | 33.73162 | 35107 ft | 385 kts | 282° |
| 2026-05-04 17:53 | 29.31353 | 33.70245 | 35359 ft | 384 kts | 282° |
| 2026-05-04 17:54 | 29.32186 | 33.67338 | 35607 ft | 383 kts | 283° |
| 2026-05-04 17:54 | 29.33017 | 33.64440 | 35857 ft | 382 kts | 282° |
| 2026-05-04 17:54 | 29.33843 | 33.61551 | 36044 ft | 382 kts | 282° |
| 2026-05-04 17:54 | 29.34657 | 33.58693 | 36066 ft | 382 kts | 282° |
| 2026-05-04 17:55 | 29.36297 | 33.52912 | 36065 ft | 381 kts | 282° |
| 2026-05-04 17:55 | 29.37936 | 33.47136 | 36072 ft | 381 kts | 282° |
| 2026-05-04 17:56 | 29.39578 | 33.41359 | 36070 ft | 381 kts | 282° |
| 2026-05-04 17:56 | 29.41216 | 33.35580 | 36067 ft | 381 kts | 282° |
| 2026-05-04 17:57 | 29.42856 | 33.29806 | 36069 ft | 381 kts | 282° |
| 2026-05-04 17:57 | 29.44492 | 33.24028 | 36068 ft | 381 kts | 282° |
| 2026-05-04 17:58 | 29.46116 | 33.18252 | 36069 ft | 380 kts | 282° |
| 2026-05-04 17:58 | 29.47733 | 33.12469 | 36073 ft | 380 kts | 282° |
| 2026-05-04 17:59 | 29.49343 | 33.06725 | 36066 ft | 381 kts | 282° |
| 2026-05-04 18:00 | 29.51774 | 32.98052 | 36050 ft | 380 kts | 282° |
| 2026-05-04 18:00 | 29.53391 | 32.92266 | 36046 ft | 380 kts | 282° |
| 2026-05-04 18:01 | 29.55006 | 32.86488 | 36060 ft | 380 kts | 282° |
| 2026-05-04 18:01 | 29.56618 | 32.80737 | 36057 ft | 380 kts | 282° |
| 2026-05-04 18:02 | 29.59018 | 32.72054 | 36041 ft | 380 kts | 282° |
| 2026-05-04 18:02 | 29.60576 | 32.66248 | 36048 ft | 379 kts | 281° |
| 2026-05-04 18:03 | 29.61916 | 32.60397 | 36086 ft | 378 kts | 279° |
| 2026-05-04 18:03 | 29.63189 | 32.54529 | 36072 ft | 378 kts | 279° |
| 2026-05-04 18:04 | 29.64477 | 32.48722 | 36071 ft | 377 kts | 280° |
| 2026-05-04 18:05 | 29.66241 | 32.40950 | 36063 ft | 377 kts | 280° |
| 2026-05-04 18:05 | 29.67788 | 32.34124 | 36090 ft | 377 kts | 280° |
| 2026-05-04 18:06 | 29.69748 | 32.25402 | 36083 ft | 377 kts | 280° |
| 2026-05-04 18:06 | 29.71058 | 32.19559 | 36079 ft | 377 kts | 280° |
| 2026-05-04 18:07 | 29.72368 | 32.13717 | 36082 ft | 377 kts | 280° |
| 2026-05-04 18:07 | 29.73666 | 32.07878 | 36079 ft | 377 kts | 280° |
| 2026-05-04 18:08 | 29.74963 | 32.02032 | 36083 ft | 377 kts | 281° |
| 2026-05-04 18:08 | 29.76254 | 31.96228 | 36081 ft | 377 kts | 281° |
| 2026-05-04 18:09 | 29.79651 | 31.84800 | 36081 ft | 389 kts | 298° |
| 2026-05-04 18:10 | 29.82898 | 31.79784 | 36090 ft | 391 kts | 300° |
| 2026-05-04 18:10 | 29.86139 | 31.74789 | 36090 ft | 392 kts | 300° |
| 2026-05-04 18:11 | 29.89390 | 31.69757 | 36091 ft | 392 kts | 300° |
| 2026-05-04 18:11 | 29.92634 | 31.64708 | 36091 ft | 392 kts | 300° |
| 2026-05-04 18:12 | 29.95876 | 31.59663 | 36109 ft | 392 kts | 300° |
| 2026-05-04 18:12 | 29.99124 | 31.54612 | 36113 ft | 392 kts | 300° |
| 2026-05-04 18:13 | 30.02366 | 31.49564 | 36138 ft | 391 kts | 300° |
| 2026-05-04 18:14 | 30.07350 | 31.42095 | 36130 ft | 398 kts | 308° |
| 2026-05-04 18:14 | 30.09507 | 31.40105 | 36127 ft | 409 kts | 319° |
| 2026-05-04 18:14 | 30.12089 | 31.38609 | 36123 ft | 423 kts | 331° |
| 2026-05-04 18:15 | 30.18005 | 31.37229 | 36147 ft | 438 kts | 341° |
| 2026-05-04 18:15 | 30.24027 | 31.36154 | 36123 ft | 438 kts | 341° |
| 2026-05-04 18:16 | 30.30090 | 31.35045 | 36115 ft | 438 kts | 341° |
| 2026-05-04 18:16 | 30.36112 | 31.33934 | 36109 ft | 438 kts | 341° |
| 2026-05-04 18:17 | 30.45147 | 31.32273 | 36107 ft | 437 kts | 341° |
| 2026-05-04 18:18 | 30.54120 | 31.30631 | 36091 ft | 438 kts | 341° |
| 2026-05-04 18:18 | 30.60131 | 31.29522 | 36095 ft | 438 kts | 341° |
| 2026-05-04 18:19 | 30.69158 | 31.27856 | 36127 ft | 438 kts | 341° |
| 2026-05-04 18:19 | 30.75176 | 31.26743 | 36117 ft | 438 kts | 341° |
| 2026-05-04 18:20 | 30.81194 | 31.25636 | 36112 ft | 438 kts | 341° |
| 2026-05-04 18:20 | 30.87175 | 31.24524 | 36110 ft | 438 kts | 341° |
| 2026-05-04 18:21 | 30.93197 | 31.23403 | 36127 ft | 438 kts | 342° |
| 2026-05-04 18:21 | 30.99209 | 31.22285 | 36115 ft | 438 kts | 342° |
| 2026-05-04 18:22 | 31.05224 | 31.21170 | 36110 ft | 438 kts | 342° |
| 2026-05-04 18:22 | 31.11208 | 31.20059 | 36114 ft | 438 kts | 342° |
| 2026-05-04 18:23 | 31.17232 | 31.18939 | 36142 ft | 438 kts | 342° |
| 2026-05-04 18:23 | 31.23254 | 31.17816 | 36131 ft | 438 kts | 342° |
| 2026-05-04 18:24 | 31.29282 | 31.16696 | 36123 ft | 438 kts | 342° |
| 2026-05-04 18:24 | 31.35264 | 31.15569 | 36118 ft | 438 kts | 342° |
| 2026-05-04 18:25 | 31.41289 | 31.14435 | 36145 ft | 438 kts | 342° |
| 2026-05-04 18:25 | 31.47308 | 31.13304 | 36135 ft | 438 kts | 342° |
| 2026-05-04 18:26 | 31.53333 | 31.12185 | 36124 ft | 439 kts | 343° |
| 2026-05-04 18:26 | 31.59434 | 31.11382 | 36118 ft | 443 kts | 346° |
| 2026-05-04 18:27 | 31.65539 | 31.10839 | 36151 ft | 443 kts | 346° |
| 2026-05-04 18:27 | 31.71677 | 31.10269 | 36111 ft | 441 kts | 346° |
| 2026-05-04 18:28 | 31.77786 | 31.09616 | 36106 ft | 441 kts | 346° |
| 2026-05-04 18:28 | 31.83891 | 31.08938 | 36105 ft | 441 kts | 346° |
| 2026-05-04 18:29 | 31.89966 | 31.08275 | 36103 ft | 441 kts | 346° |
| 2026-05-04 18:29 | 31.96079 | 31.07624 | 36103 ft | 441 kts | 346° |
| 2026-05-04 18:30 | 32.05257 | 31.06635 | 36106 ft | 441 kts | 346° |
| 2026-05-04 18:31 | 32.11367 | 31.05965 | 36108 ft | 441 kts | 346° |
| 2026-05-04 18:31 | 32.17482 | 31.05292 | 36130 ft | 441 kts | 345° |
| 2026-05-04 18:32 | 32.23600 | 31.04615 | 36113 ft | 441 kts | 345° |
| 2026-05-04 18:32 | 32.28678 | 31.04054 | 36107 ft | 441 kts | 345° |
| 2026-05-04 18:33 | 32.34794 | 31.03376 | 36096 ft | 441 kts | 345° |
| 2026-05-04 18:33 | 32.41890 | 31.02597 | 36083 ft | 440 kts | 345° |
| 2026-05-04 18:34 | 32.46950 | 31.02047 | 36082 ft | 439 kts | 345° |
| 2026-05-04 18:34 | 32.53039 | 31.01373 | 36068 ft | 439 kts | 345° |
| 2026-05-04 18:35 | 32.59126 | 31.00695 | 36078 ft | 440 kts | 345° |
| 2026-05-04 18:35 | 32.65224 | 31.00014 | 36103 ft | 440 kts | 345° |
| 2026-05-04 18:36 | 32.71313 | 30.99334 | 36099 ft | 440 kts | 345° |
| 2026-05-04 18:36 | 32.77402 | 30.98657 | 36083 ft | 439 kts | 345° |
| 2026-05-04 18:37 | 32.83450 | 30.97985 | 36074 ft | 439 kts | 345° |
| 2026-05-04 18:37 | 32.89532 | 30.97305 | 36062 ft | 438 kts | 345° |
| 2026-05-04 18:38 | 32.95597 | 30.96621 | 36048 ft | 438 kts | 345° |
| 2026-05-04 18:38 | 33.01668 | 30.95937 | 36055 ft | 438 kts | 346° |
| 2026-05-04 18:39 | 33.07690 | 30.95256 | 36055 ft | 438 kts | 346° |
| 2026-05-04 18:39 | 33.13777 | 30.94701 | 36085 ft | 441 kts | 349° |
| 2026-05-04 18:40 | 33.19928 | 30.94508 | 36078 ft | 442 kts | 351° |
| 2026-05-04 18:40 | 33.26070 | 30.94397 | 36068 ft | 441 kts | 350° |
| 2026-05-04 18:41 | 33.32165 | 30.94207 | 36057 ft | 440 kts | 349° |
| 2026-05-04 18:41 | 33.38279 | 30.93963 | 36049 ft | 439 kts | 349° |
| 2026-05-04 18:42 | 33.44384 | 30.93706 | 36043 ft | 439 kts | 349° |
| 2026-05-04 18:42 | 33.50484 | 30.93470 | 36040 ft | 439 kts | 349° |
| 2026-05-04 18:43 | 33.56588 | 30.93237 | 36072 ft | 439 kts | 350° |
| 2026-05-04 18:43 | 33.62694 | 30.93011 | 36053 ft | 439 kts | 350° |
| 2026-05-04 18:44 | 33.68757 | 30.92788 | 36039 ft | 439 kts | 350° |
| 2026-05-04 18:44 | 33.74865 | 30.92548 | 36025 ft | 439 kts | 350° |
| 2026-05-04 18:45 | 33.80973 | 30.92310 | 36044 ft | 439 kts | 351° |
| 2026-05-04 18:45 | 33.87081 | 30.92087 | 36018 ft | 439 kts | 351° |
| 2026-05-04 18:46 | 33.93145 | 30.91861 | 36002 ft | 439 kts | 351° |
| 2026-05-04 18:46 | 33.99249 | 30.91600 | 35996 ft | 438 kts | 350° |
| 2026-05-04 18:47 | 34.05339 | 30.91254 | 36013 ft | 438 kts | 350° |
| 2026-05-04 18:47 | 34.11426 | 30.90890 | 35999 ft | 438 kts | 350° |
| 2026-05-04 18:48 | 34.17520 | 30.90541 | 35991 ft | 439 kts | 350° |
| 2026-05-04 18:48 | 34.23618 | 30.90206 | 35982 ft | 439 kts | 350° |
| 2026-05-04 18:49 | 34.29677 | 30.89882 | 35974 ft | 439 kts | 350° |
| 2026-05-04 18:49 | 34.35779 | 30.89591 | 35974 ft | 439 kts | 351° |
| 2026-05-04 18:50 | 34.41893 | 30.89308 | 35973 ft | 439 kts | 351° |
| 2026-05-04 18:50 | 34.48010 | 30.89011 | 36001 ft | 440 kts | 351° |
| 2026-05-04 18:51 | 34.54127 | 30.88709 | 35980 ft | 440 kts | 351° |
| 2026-05-04 18:51 | 34.60246 | 30.88402 | 35970 ft | 440 kts | 351° |
| 2026-05-04 18:52 | 34.66381 | 30.88133 | 35959 ft | 441 kts | 352° |
| 2026-05-04 18:52 | 34.72484 | 30.87947 | 35977 ft | 442 kts | 353° |
| 2026-05-04 18:53 | 34.78632 | 30.87770 | 35954 ft | 442 kts | 353° |
| 2026-05-04 18:53 | 34.84778 | 30.87579 | 35950 ft | 442 kts | 352° |
| 2026-05-04 18:54 | 34.90925 | 30.87376 | 35940 ft | 442 kts | 352° |
| 2026-05-04 18:54 | 34.97085 | 30.87167 | 35964 ft | 443 kts | 353° |
| 2026-05-04 18:55 | 35.03204 | 30.86953 | 35947 ft | 443 kts | 353° |
| 2026-05-04 18:55 | 35.12452 | 30.86635 | 35935 ft | 443 kts | 353° |
| 2026-05-04 18:56 | 35.18614 | 30.86436 | 35954 ft | 443 kts | 354° |
| 2026-05-04 18:56 | 35.24769 | 30.86235 | 35950 ft | 442 kts | 354° |
| 2026-05-04 18:57 | 35.30877 | 30.86044 | 35947 ft | 442 kts | 354° |
| 2026-05-04 18:57 | 35.37022 | 30.85835 | 35957 ft | 442 kts | 354° |
| 2026-05-04 18:58 | 35.43167 | 30.85613 | 35951 ft | 442 kts | 354° |
| 2026-05-04 18:58 | 35.49314 | 30.85406 | 35947 ft | 442 kts | 354° |
| 2026-05-04 18:59 | 35.55467 | 30.85203 | 35944 ft | 442 kts | 354° |
| 2026-05-04 18:59 | 35.61569 | 30.85002 | 35951 ft | 442 kts | 355° |
| 2026-05-04 19:00 | 35.67714 | 30.84713 | 35939 ft | 441 kts | 353° |
| 2026-05-04 19:00 | 35.73839 | 30.84316 | 35935 ft | 441 kts | 353° |
| 2026-05-04 19:01 | 35.79962 | 30.83909 | 35930 ft | 441 kts | 353° |
| 2026-05-04 19:01 | 35.86051 | 30.83539 | 35934 ft | 441 kts | 354° |
| 2026-05-04 19:02 | 35.92179 | 30.83176 | 35927 ft | 441 kts | 354° |
| 2026-05-04 19:02 | 35.98310 | 30.82807 | 35924 ft | 441 kts | 354° |
| 2026-05-04 19:03 | 36.04439 | 30.82436 | 35936 ft | 441 kts | 354° |
| 2026-05-04 19:03 | 36.10539 | 30.82175 | 35935 ft | 441 kts | 355° |
| 2026-05-04 19:04 | 36.16674 | 30.82009 | 35933 ft | 441 kts | 355° |
| 2026-05-04 19:04 | 36.22806 | 30.81834 | 35932 ft | 441 kts | 355° |
| 2026-05-04 19:05 | 36.28938 | 30.81628 | 35951 ft | 440 kts | 355° |
| 2026-05-04 19:05 | 36.35052 | 30.81417 | 35952 ft | 439 kts | 355° |
| 2026-05-04 19:06 | 36.41125 | 30.81211 | 35949 ft | 439 kts | 356° |
| 2026-05-04 19:06 | 36.47234 | 30.81005 | 35949 ft | 439 kts | 355° |
| 2026-05-04 19:07 | 36.53333 | 30.80787 | 35946 ft | 438 kts | 355° |
| 2026-05-04 19:07 | 36.59430 | 30.80574 | 35952 ft | 438 kts | 355° |
| 2026-05-04 19:08 | 36.65519 | 30.80368 | 35958 ft | 438 kts | 355° |
| 2026-05-04 19:08 | 36.71554 | 30.80169 | 35987 ft | 436 kts | 356° |
| 2026-05-04 19:09 | 36.77614 | 30.79963 | 35994 ft | 435 kts | 356° |
| 2026-05-04 19:09 | 36.83656 | 30.79753 | 35994 ft | 434 kts | 356° |
| 2026-05-04 19:10 | 36.89693 | 30.79540 | 36011 ft | 433 kts | 355° |
| 2026-05-04 19:10 | 36.95696 | 30.79177 | 36007 ft | 431 kts | 352° |
| 2026-05-04 19:11 | 37.01603 | 30.78412 | 36003 ft | 429 kts | 351° |
| 2026-05-04 19:11 | 37.07525 | 30.77557 | 35993 ft | 428 kts | 351° |
| 2026-05-04 19:12 | 37.16401 | 30.76410 | 35970 ft | 428 kts | 352° |
| 2026-05-04 19:13 | 37.22334 | 30.75688 | 35960 ft | 428 kts | 352° |
| 2026-05-04 19:13 | 37.28266 | 30.74957 | 35960 ft | 428 kts | 352° |
| 2026-05-04 19:14 | 37.34162 | 30.74217 | 35968 ft | 429 kts | 352° |
| 2026-05-04 19:14 | 37.40096 | 30.73473 | 35982 ft | 429 kts | 352° |
| 2026-05-04 19:15 | 37.46032 | 30.72682 | 35985 ft | 429 kts | 351° |
| 2026-05-04 19:15 | 37.51948 | 30.71802 | 35982 ft | 428 kts | 351° |
| 2026-05-04 19:16 | 37.57865 | 30.70914 | 36009 ft | 427 kts | 351° |
| 2026-05-04 19:16 | 37.63733 | 30.70119 | 36009 ft | 427 kts | 352° |
| 2026-05-04 19:17 | 37.69636 | 30.69424 | 36013 ft | 426 kts | 352° |
| 2026-05-04 19:17 | 37.75543 | 30.68719 | 36019 ft | 426 kts | 352° |
| 2026-05-04 19:18 | 37.81432 | 30.67986 | 36022 ft | 425 kts | 352° |
| 2026-05-04 19:18 | 37.87273 | 30.67255 | 36022 ft | 424 kts | 352° |
| 2026-05-04 19:19 | 37.93133 | 30.66492 | 36026 ft | 424 kts | 352° |
| 2026-05-04 19:19 | 37.98995 | 30.65622 | 36016 ft | 424 kts | 351° |
| 2026-05-04 19:20 | 38.04858 | 30.64807 | 36015 ft | 424 kts | 352° |
| 2026-05-04 19:20 | 38.10738 | 30.64051 | 36012 ft | 425 kts | 352° |
| 2026-05-04 19:21 | 38.16624 | 30.63299 | 36016 ft | 425 kts | 352° |
| 2026-05-04 19:21 | 38.22469 | 30.62540 | 36022 ft | 426 kts | 352° |
| 2026-05-04 19:22 | 38.28370 | 30.61754 | 36022 ft | 426 kts | 352° |
| 2026-05-04 19:22 | 38.34265 | 30.60963 | 36021 ft | 426 kts | 352° |
| 2026-05-04 19:23 | 38.40175 | 30.60168 | 36030 ft | 427 kts | 352° |
| 2026-05-04 19:23 | 38.46088 | 30.59362 | 36028 ft | 428 kts | 352° |
| 2026-05-04 19:24 | 38.51972 | 30.58561 | 36028 ft | 428 kts | 353° |
| 2026-05-04 19:24 | 38.57899 | 30.57759 | 36028 ft | 429 kts | 352° |
| 2026-05-04 19:25 | 38.63829 | 30.56954 | 36038 ft | 429 kts | 352° |
| 2026-05-04 19:25 | 38.69763 | 30.56148 | 36040 ft | 429 kts | 352° |
| 2026-05-04 19:26 | 38.75697 | 30.55339 | 36039 ft | 429 kts | 352° |
| 2026-05-04 19:26 | 38.81475 | 30.53865 | 36041 ft | 427 kts | 339° |
| 2026-05-04 19:27 | 38.86826 | 30.50596 | 36048 ft | 427 kts | 334° |
| 2026-05-04 19:27 | 38.92155 | 30.47190 | 36044 ft | 427 kts | 334° |
| 2026-05-04 19:28 | 38.97481 | 30.43793 | 36044 ft | 427 kts | 334° |
| 2026-05-04 19:28 | 39.02771 | 30.40405 | 36044 ft | 427 kts | 334° |
| 2026-05-04 19:29 | 39.08091 | 30.36986 | 36049 ft | 427 kts | 334° |
| 2026-05-04 19:29 | 39.13403 | 30.33573 | 36051 ft | 427 kts | 334° |
| 2026-05-04 19:30 | 39.18715 | 30.30143 | 36050 ft | 427 kts | 334° |
| 2026-05-04 19:30 | 39.24018 | 30.26708 | 36053 ft | 426 kts | 334° |
| 2026-05-04 19:31 | 39.29319 | 30.23284 | 36061 ft | 426 kts | 334° |
| 2026-05-04 19:31 | 39.34630 | 30.19851 | 36057 ft | 426 kts | 334° |
| 2026-05-04 19:32 | 39.39890 | 30.16433 | 36061 ft | 426 kts | 334° |
| 2026-05-04 19:32 | 39.45189 | 30.12982 | 36061 ft | 426 kts | 334° |
| 2026-05-04 19:33 | 39.50559 | 30.09740 | 36041 ft | 425 kts | 338° |
| 2026-05-04 19:33 | 39.56015 | 30.06785 | 36055 ft | 425 kts | 339° |
| 2026-05-04 19:34 | 39.61468 | 30.03837 | 36048 ft | 425 kts | 338° |
| 2026-05-04 19:34 | 39.64205 | 30.02327 | 35254 ft | 432 kts | 339° |
| 2026-05-04 19:34 | 39.66986 | 30.00777 | 34388 ft | 436 kts | 339° |
| 2026-05-04 19:34 | 39.69776 | 29.99214 | 33617 ft | 436 kts | 339° |
| 2026-05-04 19:35 | 39.72529 | 29.97665 | 32645 ft | 429 kts | 340° |
| 2026-05-04 19:35 | 39.75238 | 29.96134 | 31656 ft | 420 kts | 341° |
| 2026-05-04 19:35 | 39.77822 | 29.94672 | 31174 ft | 400 kts | 341° |
| 2026-05-04 19:35 | 39.80361 | 29.93237 | 30581 ft | 384 kts | 342° |
| 2026-05-04 19:36 | 39.82766 | 29.91879 | 30016 ft | 370 kts | 342° |
| 2026-05-04 19:36 | 39.85088 | 29.90568 | 29449 ft | 356 kts | 342° |
| 2026-05-04 19:36 | 39.87344 | 29.89299 | 28948 ft | 354 kts | 342° |
| 2026-05-04 19:36 | 39.89633 | 29.88062 | 28437 ft | 351 kts | 346° |
| 2026-05-04 19:37 | 39.91976 | 29.87267 | 27935 ft | 343 kts | 354° |
| 2026-05-04 19:37 | 39.92909 | 29.87100 | 27820 ft | 341 kts | 358° |
| 2026-05-04 19:37 | 39.95102 | 29.86996 | 27561 ft | 354 kts | 2° |
| 2026-05-04 19:37 | 39.97634 | 29.87003 | 27237 ft | 359 kts | 2° |
| 2026-05-04 19:38 | 40.00022 | 29.87002 | 26932 ft | 359 kts | 2° |
| 2026-05-04 19:38 | 40.02656 | 29.86993 | 26591 ft | 358 kts | 2° |
| 2026-05-04 19:38 | 40.05144 | 29.86983 | 26278 ft | 356 kts | 2° |
| 2026-05-04 19:38 | 40.07614 | 29.86976 | 25951 ft | 354 kts | 2° |
| 2026-05-04 19:39 | 40.10094 | 29.86969 | 25628 ft | 353 kts | 2° |
| 2026-05-04 19:39 | 40.12521 | 29.86963 | 25313 ft | 351 kts | 2° |
| 2026-05-04 19:39 | 40.14962 | 29.86957 | 25000 ft | 349 kts | 2° |
| 2026-05-04 19:39 | 40.17385 | 29.86953 | 24668 ft | 348 kts | 2° |
| 2026-05-04 19:40 | 40.19805 | 29.86950 | 24372 ft | 347 kts | 2° |
| 2026-05-04 19:40 | 40.22187 | 29.86948 | 24057 ft | 346 kts | 2° |
| 2026-05-04 19:40 | 40.24583 | 29.86943 | 23750 ft | 344 kts | 2° |
| 2026-05-04 19:40 | 40.26972 | 29.86938 | 23404 ft | 343 kts | 2° |
| 2026-05-04 19:41 | 40.29354 | 29.86930 | 23088 ft | 342 kts | 2° |
| 2026-05-04 19:41 | 40.31746 | 29.86925 | 22779 ft | 341 kts | 2° |
| 2026-05-04 19:41 | 40.34238 | 29.86920 | 22463 ft | 340 kts | 2° |
| 2026-05-04 19:41 | 40.36525 | 29.86918 | 22153 ft | 340 kts | 2° |
| 2026-05-04 19:42 | 40.38890 | 29.86975 | 21838 ft | 339 kts | 7° |
| 2026-05-04 19:42 | 40.41184 | 29.87589 | 21547 ft | 337 kts | 19° |
| 2026-05-04 19:42 | 40.43319 | 29.88849 | 21236 ft | 337 kts | 30° |
| 2026-05-04 19:42 | 40.45254 | 29.90584 | 20932 ft | 337 kts | 33° |
| 2026-05-04 19:43 | 40.47125 | 29.92309 | 20707 ft | 328 kts | 33° |
| 2026-05-04 19:43 | 40.48982 | 29.94015 | 20574 ft | 316 kts | 33° |
| 2026-05-04 19:43 | 40.50163 | 29.95095 | 20487 ft | 308 kts | 31° |
| 2026-05-04 19:43 | 40.52034 | 29.96329 | 20256 ft | 298 kts | 18° |
| 2026-05-04 19:44 | 40.54777 | 29.96935 | 19919 ft | 297 kts | 2° |
| 2026-05-04 19:44 | 40.56174 | 29.96928 | 19750 ft | 297 kts | 2° |
| 2026-05-04 19:44 | 40.58223 | 29.96923 | 19509 ft | 297 kts | 2° |
| 2026-05-04 19:44 | 40.60284 | 29.96926 | 19268 ft | 296 kts | 2° |
| 2026-05-04 19:45 | 40.62344 | 29.96929 | 19119 ft | 296 kts | 2° |
| 2026-05-04 19:45 | 40.64376 | 29.96927 | 18927 ft | 296 kts | 2° |
| 2026-05-04 19:45 | 40.66466 | 29.96908 | 18678 ft | 296 kts | 359° |
| 2026-05-04 19:45 | 40.68471 | 29.96455 | 18428 ft | 299 kts | 346° |
| 2026-05-04 19:46 | 40.70427 | 29.95563 | 18148 ft | 299 kts | 344° |
| 2026-05-04 19:46 | 40.72387 | 29.94655 | 17886 ft | 298 kts | 344° |
| 2026-05-04 19:46 | 40.74341 | 29.93751 | 17624 ft | 297 kts | 344° |
| 2026-05-04 19:46 | 40.76293 | 29.92851 | 17359 ft | 296 kts | 344° |
| 2026-05-04 19:47 | 40.78231 | 29.91958 | 17106 ft | 295 kts | 344° |
| 2026-05-04 19:47 | 40.80165 | 29.91067 | 16862 ft | 294 kts | 344° |
| 2026-05-04 19:47 | 40.82091 | 29.90177 | 16598 ft | 293 kts | 345° |
| 2026-05-04 19:47 | 40.83978 | 29.89172 | 16352 ft | 295 kts | 334° |
| 2026-05-04 19:48 | 40.85563 | 29.87411 | 16098 ft | 304 kts | 314° |
| 2026-05-04 19:48 | 40.86586 | 29.84927 | 15726 ft | 317 kts | 292° |
| 2026-05-04 19:48 | 40.86849 | 29.82031 | 15282 ft | 328 kts | 274° |
| 2026-05-04 19:48 | 40.86802 | 29.79034 | 14968 ft | 326 kts | 274° |
| 2026-05-04 19:49 | 40.86753 | 29.76042 | 14644 ft | 324 kts | 274° |
| 2026-05-04 19:49 | 40.86707 | 29.73087 | 14149 ft | 319 kts | 274° |
| 2026-05-04 19:49 | 40.86664 | 29.70175 | 13601 ft | 315 kts | 274° |
| 2026-05-04 19:49 | 40.86624 | 29.67298 | 13188 ft | 312 kts | 274° |
| 2026-05-04 19:50 | 40.86609 | 29.64447 | 12803 ft | 308 kts | 279° |
| 2026-05-04 19:50 | 40.86873 | 29.61679 | 12403 ft | 302 kts | 283° |
| 2026-05-04 19:50 | 40.87163 | 29.58976 | 12056 ft | 300 kts | 283° |
| 2026-05-04 19:50 | 40.87453 | 29.56237 | 11638 ft | 301 kts | 283° |
| 2026-05-04 19:51 | 40.87736 | 29.53514 | 11307 ft | 297 kts | 284° |
| 2026-05-04 19:51 | 40.88067 | 29.50882 | 11152 ft | 272 kts | 295° |
| 2026-05-04 19:51 | 40.88927 | 29.48784 | 11037 ft | 253 kts | 317° |
| 2026-05-04 19:51 | 40.90261 | 29.47380 | 11010 ft | 244 kts | 338° |
| 2026-05-04 19:52 | 40.91859 | 29.46747 | 11008 ft | 238 kts | 357° |
| 2026-05-04 19:52 | 40.93486 | 29.46626 | 11009 ft | 238 kts | 359° |
| 2026-05-04 19:52 | 40.95139 | 29.46519 | 11009 ft | 238 kts | 359° |
| 2026-05-04 19:52 | 40.96796 | 29.46414 | 11007 ft | 238 kts | 358° |
| 2026-05-04 19:53 | 40.98421 | 29.46009 | 11006 ft | 240 kts | 345° |
| 2026-05-04 19:53 | 41.00013 | 29.45326 | 11008 ft | 241 kts | 345° |
| 2026-05-04 19:53 | 41.01609 | 29.44646 | 11008 ft | 241 kts | 345° |
| 2026-05-04 19:53 | 41.03204 | 29.43969 | 11007 ft | 241 kts | 345° |
| 2026-05-04 19:54 | 41.04799 | 29.43290 | 11012 ft | 241 kts | 345° |
| 2026-05-04 19:54 | 41.06372 | 29.42523 | 11004 ft | 243 kts | 337° |
| 2026-05-04 19:54 | 41.07813 | 29.41341 | 11004 ft | 245 kts | 332° |
| 2026-05-04 19:54 | 41.09249 | 29.40108 | 11003 ft | 245 kts | 332° |
| 2026-05-04 19:55 | 41.10678 | 29.38881 | 11008 ft | 245 kts | 332° |
| 2026-05-04 19:55 | 41.12089 | 29.37669 | 11003 ft | 245 kts | 332° |
| 2026-05-04 19:55 | 41.13516 | 29.36432 | 11004 ft | 246 kts | 329° |
| 2026-05-04 19:55 | 41.14775 | 29.34861 | 11005 ft | 252 kts | 318° |
| 2026-05-04 19:56 | 41.15945 | 29.33136 | 10999 ft | 252 kts | 318° |
| 2026-05-04 19:56 | 41.17107 | 29.31425 | 10984 ft | 251 kts | 319° |
| 2026-05-04 19:56 | 41.18056 | 29.29441 | 10998 ft | 265 kts | 296° |
| 2026-05-04 19:56 | 41.18163 | 29.26939 | 10999 ft | 285 kts | 264° |
| 2026-05-04 19:57 | 41.17227 | 29.24518 | 10711 ft | 302 kts | 230° |
| 2026-05-04 19:57 | 41.15625 | 29.22743 | 10447 ft | 304 kts | 219° |
| 2026-05-04 19:57 | 41.13880 | 29.21151 | 10180 ft | 305 kts | 216° |
| 2026-05-04 19:57 | 41.12100 | 29.19634 | 9899 ft | 304 kts | 215° |
| 2026-05-04 19:58 | 41.10327 | 29.18137 | 9631 ft | 302 kts | 215° |
| 2026-05-04 19:58 | 41.08558 | 29.16617 | 9395 ft | 300 kts | 216° |
| 2026-05-04 19:58 | 41.06839 | 29.15108 | 9156 ft | 298 kts | 217° |
| 2026-05-04 19:58 | 41.05132 | 29.13586 | 8932 ft | 297 kts | 217° |
| 2026-05-04 19:59 | 41.03422 | 29.12044 | 8686 ft | 295 kts | 217° |
| 2026-05-04 19:59 | 41.01731 | 29.10513 | 8459 ft | 293 kts | 218° |
| 2026-05-04 19:59 | 41.00079 | 29.09017 | 8229 ft | 292 kts | 217° |
| 2026-05-04 19:59 | 40.98402 | 29.07503 | 7989 ft | 290 kts | 218° |
| 2026-05-04 20:00 | 40.96739 | 29.06000 | 7763 ft | 289 kts | 217° |
| 2026-05-04 20:00 | 40.95084 | 29.04503 | 7537 ft | 287 kts | 218° |
| 2026-05-04 20:00 | 40.93440 | 29.03019 | 7296 ft | 285 kts | 218° |
| 2026-05-04 20:00 | 40.91992 | 29.01322 | 7096 ft | 271 kts | 237° |
| 2026-05-04 20:01 | 40.91040 | 28.99262 | 6833 ft | 257 kts | 255° |
| 2026-05-04 20:01 | 40.90574 | 28.97001 | 6573 ft | 246 kts | 268° |
| 2026-05-04 20:01 | 40.90275 | 28.94822 | 6325 ft | 245 kts | 267° |
| 2026-05-04 20:01 | 40.89964 | 28.92619 | 6090 ft | 245 kts | 267° |
| 2026-05-04 20:02 | 40.89651 | 28.90441 | 5828 ft | 244 kts | 266° |
| 2026-05-04 20:02 | 40.89333 | 28.88243 | 5583 ft | 243 kts | 266° |
| 2026-05-04 20:02 | 40.89026 | 28.86052 | 5347 ft | 240 kts | 270° |
| 2026-05-04 20:02 | 40.89143 | 28.83950 | 5106 ft | 222 kts | 296° |
| 2026-05-04 20:03 | 40.89869 | 28.82251 | 4922 ft | 207 kts | 319° |
| 2026-05-04 20:03 | 40.90991 | 28.81136 | 4758 ft | 200 kts | 338° |
| 2026-05-04 20:03 | 40.92244 | 28.80325 | 4607 ft | 201 kts | 337° |
| 2026-05-04 20:03 | 40.93496 | 28.79496 | 4451 ft | 201 kts | 337° |
| 2026-05-04 20:04 | 40.94743 | 28.78667 | 4299 ft | 198 kts | 336° |
| 2026-05-04 20:04 | 40.95955 | 28.77857 | 4151 ft | 192 kts | 336° |
| 2026-05-04 20:04 | 40.97122 | 28.77073 | 4060 ft | 184 kts | 336° |
| 2026-05-04 20:04 | 40.98231 | 28.76327 | 4035 ft | 179 kts | 337° |
| 2026-05-04 20:05 | 40.99338 | 28.75589 | 4036 ft | 178 kts | 337° |
| 2026-05-04 20:05 | 41.00444 | 28.74850 | 4037 ft | 178 kts | 337° |
| 2026-05-04 20:05 | 41.01550 | 28.74110 | 4037 ft | 178 kts | 337° |
| 2026-05-04 20:05 | 41.02676 | 28.73446 | 4031 ft | 176 kts | 351° |
| 2026-05-04 20:06 | 41.03888 | 28.73271 | 4038 ft | 175 kts | 358° |
| 2026-05-04 20:06 | 41.05104 | 28.73205 | 4035 ft | 175 kts | 359° |
| 2026-05-04 20:06 | 41.06321 | 28.73168 | 4032 ft | 175 kts | 360° |
| 2026-05-04 20:06 | 41.07544 | 28.73140 | 3971 ft | 176 kts | 0° |
| 2026-05-04 20:07 | 41.08771 | 28.73114 | 3779 ft | 176 kts | 360° |
| 2026-05-04 20:07 | 41.10032 | 28.73090 | 3553 ft | 176 kts | 0° |
| 2026-05-04 20:07 | 41.11208 | 28.73067 | 3350 ft | 175 kts | 0° |
| 2026-05-04 20:07 | 41.12424 | 28.73043 | 3077 ft | 170 kts | 360° |
| 2026-05-04 20:08 | 41.13606 | 28.73020 | 2843 ft | 161 kts | 0° |
| 2026-05-04 20:08 | 41.14674 | 28.72999 | 2623 ft | 149 kts | 360° |
| 2026-05-04 20:08 | 41.15688 | 28.72980 | 2426 ft | 141 kts | 360° |
| 2026-05-04 20:08 | 41.16642 | 28.72961 | 2231 ft | 136 kts | 359° |
| 2026-05-04 20:09 | 41.17574 | 28.72943 | 2067 ft | 134 kts | 359° |
| 2026-05-04 20:09 | 41.18526 | 28.72925 | 1875 ft | 132 kts | 359° |
| 2026-05-04 20:09 | 41.19417 | 28.72908 | 1708 ft | 131 kts | 359° |
| 2026-05-04 20:09 | 41.20330 | 28.72890 | 1505 ft | 131 kts | 359° |
| 2026-05-04 20:10 | 41.21225 | 28.72873 | 1335 ft | 131 kts | 359° |
| 2026-05-04 20:10 | 41.22154 | 28.72855 | 1153 ft | 132 kts | 359° |
| 2026-05-04 20:10 | 41.23077 | 28.72834 | 968 ft | 134 kts | 358° |
| 2026-05-04 20:10 | 41.24011 | 28.72824 | 746 ft | 135 kts | 357° |
| 2026-05-04 20:11 | 41.24951 | 28.72794 | 522 ft | 135 kts | 356° |
| 2026-05-04 20:11 | 41.25890 | 28.72780 | 322 ft | 135 kts | 356° |
| 2026-05-04 20:11 | 41.26820 | 28.72766 | 199 ft | 131 kts | 356° |
| 2026-05-04 20:11 | 41.27652 | 28.72743 | 176 ft | 100 kts | 358° |
| 2026-05-04 20:12 | 41.28177 | 28.72737 | 178 ft | 51 kts | 359° |
| 2026-05-04 20:12 | 41.28479 | 28.72738 | 175 ft | 33 kts | 11° |
| 2026-05-04 20:12 | 41.28663 | 28.72834 | 175 ft | 19 kts | 29° |
| 2026-05-04 20:12 | 41.28714 | 28.72931 | 176 ft | 10 kts | 111° |
| 2026-05-04 20:13 | 41.28654 | 28.72954 | 176 ft | 9 kts | 181° |
| 2026-05-04 20:13 | 41.28600 | 28.72955 | 176 ft | 8 kts | 179° |
| 2026-05-04 20:13 | 41.28550 | 28.72956 | 176 ft | 7 kts | 179° |
| 2026-05-04 20:13 | 41.28508 | 28.72956 | 176 ft | 6 kts | 179° |
| 2026-05-04 20:14 | 41.28472 | 28.72957 | 176 ft | 5 kts | 179° |
| 2026-05-04 20:14 | 41.28433 | 28.72958 | 176 ft | 9 kts | 179° |
| 2026-05-04 20:14 | 41.28335 | 28.72962 | 176 ft | 17 kts | 179° |
| 2026-05-04 20:14 | 41.28219 | 28.72961 | 176 ft | 16 kts | 179° |
| 2026-05-04 20:15 | 41.28113 | 28.72964 | 176 ft | 14 kts | 179° |
| 2026-05-04 20:15 | 41.28018 | 28.72966 | 176 ft | 13 kts | 179° |
| 2026-05-04 20:15 | 41.27934 | 28.72967 | 176 ft | 11 kts | 179° |
| 2026-05-04 20:15 | 41.27857 | 28.72969 | 176 ft | 10 kts | 179° |
| 2026-05-04 20:16 | 41.27789 | 28.72971 | 176 ft | 9 kts | 178° |
| 2026-05-04 20:16 | 41.27729 | 28.72973 | 176 ft | 8 kts | 179° |
| 2026-05-04 20:16 | 41.27679 | 28.72973 | 176 ft | 7 kts | 179° |
| 2026-05-04 20:16 | 41.27640 | 28.72973 | 176 ft | 4 kts | 179° |